Flight Track Log - Related Links

Times and Time Zones

All times are in EDT time to prevent confusion due to time zone crossing. See the WAL1702 flight status page for this flight to view local times or setup timezone preferences in your user account.

Time Position Orientation Groundspeed Altitude Reporting Facility
EDT Latitude Longitude Course Direction KTS MPH feet Rate Location/Type
Tue 11:35:46 AM 23.2783 -82.0436 35° Northeast 409 471 13,800  Level Miami Center
Tue 11:36:00 AM 25.0078 -80.8968 34° Northeast  Level Estimated
Tue 11:36:46 AM 23.3544 -81.9561 47° Northeast 402 463 16,100  Level Miami Center
Tue 11:37:00 AM 25.0820 -80.8400 35° Northeast  Level Estimated
Tue 11:37:46 AM 23.4347 -81.8667 46° Northeast 397 457 18,200  Level Miami Center
Tue 11:38:00 AM 25.1562 -80.7831 35° Northeast  Level Estimated
Tue 11:38:46 AM 23.5153 -81.7703 48° Northeast 415 478 20,300  Level Miami Center
Tue 11:39:00 AM 25.2304 -80.7262 35° Northeast  Level Estimated
Tue 11:39:46 AM 23.5997 -81.6739 46° Northeast 421 484 22,100  Level Miami Center
Tue 11:40:00 AM 25.3046 -80.6693 35° Northeast  Level Estimated
Tue 11:40:46 AM 23.6864 -81.5728 47° Northeast 440 506 23,600  Level Miami Center
Tue 11:41:00 AM 25.3788 -80.6122 35° Northeast  Level Estimated
Tue 11:41:46 AM 23.7772 -81.4742 45° Northeast 445 512 24,000  Level Miami Center
Tue 11:42:46 AM 23.8767 -81.3594 47° Northeast 464 534 24,000 -50 Level Miami Center
Tue 11:43:46 AM 23.9675 -81.2561 46° Northeast 464 534 23,900  Descending Miami Center
Tue 11:44:46 AM 24.0842 -81.2008 23° Northeast 449 517 24,000 50 Climbing Miami Center
Tue 11:45:46 AM 24.2122 -81.1758 10° North 446 513 24,000 -50 Level Miami Center
Tue 11:46:46 AM 24.3383 -81.1506 10° North 451 519 23,900 -50 Descending Miami Center
Tue 11:47:46 AM 24.4683 -81.1253 10° North 457 526 23,900  Level Miami Center
Tue 11:48:46 AM 24.5944 -81.1044 North 457 526 23,900 -400 Level Miami Center
Tue 11:49:46 AM 24.7203 -81.0792 10° North 457 526 23,100 -300 Descending Miami Center
Tue 11:50:46 AM 24.8464 -81.0514 11° North 457 526 23,300 -850 Climbing Miami Center
Tue 11:51:46 AM 24.9725 -81.0281 10° North 457 526 21,400 -1,900 Descending Miami Center
Tue 11:52:46 AM 25.0900 -81.0047 10° North 441 507 19,500 -1,850 Descending Miami Center
Tue 11:53:46 AM 25.1992 -80.9853 North 418 481 17,700 -1,950 Descending Miami Center
Tue 11:54:46 AM 25.3064 -80.9639 10° North 400 460 15,600 -1,700 Descending Miami Center
Tue 11:55:46 AM 25.4050 -80.9442 10° North 377 434 14,300 -850 Descending Miami Center
Tue 11:56:46 AM 25.5017 -80.9267 North 361 415 13,900 -200 Descending Miami Center
Tue 11:57:46 AM 25.5758 -80.8831 28° Northeast 349 402 13,900 -696 Level Miami Center
Tue 11:58:38 AM 25.6122 -80.7736 70° East 378 435 12,600 -1,250 Descending Miami Center
Tue 11:59:46 AM 25.6633 -80.6603 63° Northeast 346 398 11,400 -1,033 Descending Miami Center
Tue 12:00:40 PM 25.6969 -80.5758 66° East 316 364 10,500 -1,138 Descending Miami Center
Tue 12:01:42 PM 25.7075 -80.4817 83° East 312 359 9,200 -1,122 Descending Miami Center
Tue 12:02:43 PM 25.7161 -80.3828 84° East 307 353 8,200 -1,033 Descending Miami Center
Tue 12:03:44 PM 25.7017 -80.2947 100° East 271 312 7,100 -976 Descending Miami Center
Tue 12:04:46 PM 25.6761 -80.2225 111° Southeast 263 303 6,200 -1,279 Descending Miami Center
Tue 12:05:46 PM 25.6461 -80.1594 118° Southeast 241 277 4,500 -1,600 Descending Miami Center
Tue 12:06:46 PM 25.6928 -80.1264 33° Northeast 148 170 3,000 -821 Descending Miami Center
Tue 12:07:43 PM 25.7275 -80.1711 311° West 163 188 2,900 -610 Descending Miami Center
Tue 12:08:44 PM 25.7536 -80.2178 302° West 167 192 1,800 -1,171 Descending Miami Center
Tue 12:09:46 PM 25.7733 -80.2600 297° West 157 181 500 -1,258 Descending Miami Center
Tue 12:11:00 PM 25.7833 -80.2833 323° Northwest  Level FlightAware Approximate
Tue 12:18:00 PM 25.7954 -80.2901 323° Northwest  Level Estimated

Login

Don't have an account? Register now (free) for customized features, flight alerts, and more!